< < Back
Terminal Aerodrome Forecast


Current Version              Previous Versions:   1  2  3  4  5  6  7  8  9  

Terminal Aerodrome Forecast

450
FTUS44 KOHX 181100
TAFBNA
TAF
KBNA 181120Z 1812/1912 14003KT P6SM BKN060 BKN150
     FM182200 36005KT P6SM SCT100 BKN250=

Latest METAR

097
SAUS70 KWBC 191200 RRI
MTRBNA
METAR KBNA 191153Z 35004KT 10SM FEW090 SCT250 11/07 A3019 RMK AO2 SLP221
T01110072 10133 20089 53002


USA.gov is the U.S. government's official web portal to all federal, state and local government web resources and services.